Flight Track Log - Related Links

Times and Time Zones

All times are in EDT time to prevent confusion due to time zone crossing. See the N9029X flight status page for this flight to view local times or setup timezone preferences in your user account.

Time Position Orientation Groundspeed Altitude Reporting Facility
EDT Latitude Longitude Course Direction KTS MPH feet Rate Location/Type
Thu 11:26:37 AM 42.8122 -115.1522 313° West 117 135 10,600  Level Salt Lake Center
Thu 11:27:39 AM 42.8356 -115.1858 313° West 119 137 10,600 -48 Level Salt Lake Center
Thu 11:28:41 AM 42.8536 -115.2161 309° West 118 136 10,500 -48 Descending Salt Lake Center
Thu 11:29:43 AM 42.8797 -115.2569 311° West 117 135 10,500 -48 Level Salt Lake Center
Thu 11:30:45 AM 42.9000 -115.2892 311° West 117 135 10,400 -48 Descending Salt Lake Center
Thu 11:31:47 AM 42.9169 -115.3289 300° West 117 135 10,400  Level Salt Lake Center
Thu 11:32:49 AM 42.9278 -115.3708 289° West 114 131 10,400 48 Level Salt Lake Center
Thu 11:33:51 AM 42.9458 -115.4072 304° West 113 130 10,500 97 Climbing Salt Lake Center
Thu 11:34:53 AM 42.9567 -115.4481 290° West 111 128 10,600 48 Climbing Salt Lake Center
Thu 11:35:55 AM 42.9778 -115.4828 310° West 112 129 10,600  Level Salt Lake Center
Thu 11:36:57 AM 42.9981 -115.5175 309° West 113 130 10,600  Level Salt Lake Center
Thu 11:37:59 AM 43.0197 -115.5503 312° West 114 131 10,600 48 Level Salt Lake Center
Thu 11:39:01 AM 43.0417 -115.5847 311° West 114 131 10,700 48 Climbing Salt Lake Center
Thu 11:40:03 AM 43.0631 -115.6192 310° West 114 131 10,700  Level Salt Lake Center
Thu 11:41:06 AM 43.0869 -115.6506 316° Northwest 116 133 10,700  Level Salt Lake Center
Thu 11:42:08 AM 43.1075 -115.6872 308° West 117 135 10,700  Level Salt Lake Center
Thu 11:43:08 AM 43.1292 -115.7200 312° West 117 135 10,700  Level Salt Lake Center
Thu 11:44:09 AM 43.1511 -115.7531 312° West 115 132 10,700 -48 Level Salt Lake Center
Thu 11:45:14 AM 43.1750 -115.7906 311° West 115 132 10,600 -47 Descending Salt Lake Center
Thu 11:46:16 AM 43.1969 -115.8214 314° West 116 133 10,600  Level Salt Lake Center
Thu 11:47:18 AM 43.2200 -115.8561 312° West 116 133 10,600  Level Salt Lake Center
Thu 11:48:20 AM 43.2439 -115.8903 314° West 117 135 10,600  Level Salt Lake Center
Thu 11:49:22 AM 43.2658 -115.9264 310° West 117 135 10,600  Level Salt Lake Center
Thu 11:50:31 AM 43.2936 -115.9650 315° West 118 136 10,600  Level Salt Lake Center
Thu 11:51:26 AM 43.3114 -115.9939 310° West 117 135 10,600  Level Salt Lake Center
Thu 11:51:37 AM 43.3161 -116.0008 313° West 117 135 10,600  Level Salt Lake Center
Thu 11:52:28 AM 43.3328 -116.0317 307° West 119 137 10,600  Level Salt Lake Center
Thu 11:52:44 AM 43.3394 -116.0425 310° West 118 136 10,600  Level Salt Lake Center
Thu 11:53:30 AM 43.3542 -116.0681 308° West 119 137 10,600  Level Salt Lake Center
Thu 11:54:32 AM 43.3689 -116.1044 299° West 118 136 10,600  Level Salt Lake Center
Thu 11:55:34 AM 43.3861 -116.1458 300° West 118 136 10,600  Level Salt Lake Center
Thu 11:56:36 AM 43.4028 -116.1856 300° West 118 136 10,600  Level Salt Lake Center
Thu 11:57:38 AM 43.4186 -116.2261 298° West 117 135 10,600  Level Salt Lake Center
Thu 11:57:48 AM 43.4211 -116.2339 294° West 112 129 10,600  Level Salt Lake Center
Thu 11:58:40 AM 43.4364 -116.2644 305° West 114 131 10,600  Level Salt Lake Center
Thu 11:59:42 AM 43.4528 -116.3039 300° West 114 131 10,600  Level Salt Lake Center
Thu 12:00:43 PM 43.4703 -116.3400 304° West 116 133 10,600  Level Salt Lake Center
Thu 12:01:47 PM 43.4886 -116.3814 301° West 114 131 10,600  Level Salt Lake Center
Thu 12:02:39 PM 43.5019 -116.4142 299° West 115 132 10,600  Level Salt Lake Center
Thu 12:02:49 PM 43.5031 -116.4186 289° West 114 131 10,600  Level Salt Lake Center
Thu 12:03:45 PM 43.5172 -116.4589 296° West 115 132 10,600  Level Salt Lake Center
Thu 12:04:40 PM 43.5308 -116.4953 297° West 114 131 10,600 -88 Level Salt Lake Center
Thu 12:04:53 PM 43.5328 -116.4964 337° Northwest 115 132 10,500 90 Descending Salt Lake Center
Thu 12:05:47 PM 43.5492 -116.5331 302° West 113 130 10,700 105 Climbing Salt Lake Center
Thu 12:06:47 PM 43.5639 -116.5750 296° West 115 132 10,700 -86 Level Salt Lake Center
Thu 12:06:57 PM 43.5667 -116.5800 307° West 114 131 10,600  Descending Salt Lake Center
Thu 12:07:48 PM 43.5800 -116.6136 299° West 117 135 10,700  Climbing Salt Lake Center
Thu 12:07:59 PM 43.5814 -116.6200 287° West 114 131 10,600  Descending Salt Lake Center
Thu 12:08:49 PM 43.5942 -116.6528 298° West 117 135 10,700  Climbing Salt Lake Center
Thu 12:09:01 PM 43.5969 -116.6586 303° West 115 132 10,600 -81 Descending Salt Lake Center
Thu 12:10:03 PM 43.6128 -116.6975 299° West 115 132 10,600  Level Salt Lake Center
Thu 12:11:05 PM 43.6308 -116.7353 303° West 115 132 10,600  Level Salt Lake Center
Thu 12:12:07 PM 43.6444 -116.7750 295° West 115 132 10,600  Level Salt Lake Center
Thu 12:13:09 PM 43.6628 -116.8214 299° West 115 132 10,600  Level Salt Lake Center
Thu 12:14:11 PM 43.6783 -116.8617 298° West 115 132 10,600  Level Salt Lake Center
Thu 12:15:13 PM 43.6922 -116.9011 296° West 115 132 10,600  Level Salt Lake Center
Thu 12:16:15 PM 43.7061 -116.9414 296° West 116 133 10,600  Level Salt Lake Center
Thu 12:17:18 PM 43.7186 -116.9817 293° West 116 133 10,600  Level Salt Lake Center
Thu 12:18:20 PM 43.7317 -117.0233 293° West 116 133 10,600 -48 Level Salt Lake Center
Thu 12:19:22 PM 43.7458 -117.0708 292° West 115 132 10,500  Descending Salt Lake Center
Thu 12:20:24 PM 43.7633 -117.1089 302° West 115 132 10,600 48 Climbing Salt Lake Center
Thu 12:21:26 PM 43.7781 -117.1483 297° West 115 132 10,600  Level Salt Lake Center
Thu 12:22:28 PM 43.7975 -117.1836 307° West 115 132 10,600  Level Salt Lake Center
Thu 12:23:30 PM 43.8153 -117.2200 304° West 115 132 10,600  Level Salt Lake Center
Thu 12:24:32 PM 43.8308 -117.2575 300° West 115 132 10,600  Level Salt Lake Center
Thu 12:25:34 PM 43.8508 -117.3017 302° West 112 129 10,600 -48 Level Salt Lake Center
Thu 12:26:36 PM 43.8631 -117.3422 293° West 112 129 10,500 -48 Descending Salt Lake Center
Thu 12:27:38 PM 43.8778 -117.3811 298° West 113 130 10,500  Level Salt Lake Center
Thu 12:28:40 PM 43.8875 -117.4222 288° West 113 130 10,500  Level Salt Lake Center
Thu 12:29:42 PM 43.8992 -117.4619 292° West 112 129 10,500  Level Salt Lake Center
Thu 12:30:44 PM 43.9069 -117.5022 285° West 110 127 10,500  Level Salt Lake Center
Thu 12:31:46 PM 43.9217 -117.5514 293° West 111 128 10,500  Level Salt Lake Center
Thu 12:32:49 PM 43.9342 -117.5897 294° West 111 128 10,500  Level Salt Lake Center
Thu 12:33:51 PM 43.9461 -117.6297 293° West 111 128 10,500  Level Salt Lake Center
Thu 12:34:53 PM 43.9575 -117.6692 292° West 111 128 10,500  Level Salt Lake Center
Thu 12:35:55 PM 43.9681 -117.7108 289° West 112 129 10,500 48 Level Salt Lake Center
Thu 12:36:57 PM 43.9792 -117.7517 291° West 112 129 10,600  Climbing Salt Lake Center
Thu 12:37:59 PM 43.9922 -117.8008 290° West 112 129 10,500  Descending Salt Lake Center
Thu 12:39:01 PM 44.0033 -117.8417 291° West 113 130 10,600  Climbing Salt Lake Center
Thu 12:40:03 PM 44.0103 -117.8842 283° West 112 129 10,500 -97 Descending Salt Lake Center
Thu 12:41:05 PM 44.0225 -117.9242 293° West 112 129 10,400  Descending Salt Lake Center
Thu 12:42:07 PM 44.0367 -117.9639 296° West 113 130 10,500 48 Climbing Salt Lake Center
Thu 12:43:09 PM 44.0531 -118.0103 296° West 113 130 10,500 48 Level Salt Lake Center
Thu 12:44:11 PM 44.0678 -118.0489 298° West 113 130 10,600 97 Climbing Salt Lake Center
Thu 12:45:13 PM 44.0819 -118.0881 297° West 113 130 10,700 48 Climbing Salt Lake Center
Thu 12:46:16 PM 44.0958 -118.1278 296° West 113 130 10,700 -48 Level Salt Lake Center
Thu 12:47:18 PM 44.1078 -118.1689 292° West 113 130 10,600 -97 Descending Salt Lake Center
Thu 12:48:20 PM 44.1200 -118.2092 293° West 113 130 10,500 -48 Descending Salt Lake Center
Thu 12:49:22 PM 44.1325 -118.2569 290° West 113 130 10,500 48 Level Salt Lake Center
Thu 12:50:24 PM 44.1439 -118.2989 291° West 113 130 10,600  Climbing Salt Lake Center
Thu 12:51:26 PM 44.1536 -118.3386 289° West 112 129 10,500 -48 Descending Salt Lake Center
Thu 12:52:28 PM 44.1619 -118.3778 287° West 113 130 10,500 -48 Level Salt Lake Center
Thu 12:53:31 PM 44.1703 -118.4283 283° West 113 130 10,400 -145 Descending Salt Lake Center
Thu 12:54:32 PM 44.1781 -118.4711 284° West 113 130 10,200 -146 Descending Salt Lake Center
Thu 12:55:34 PM 44.1850 -118.5164 282° West 115 132 10,100 -97 Descending Salt Lake Center
Thu 12:56:36 PM 44.1881 -118.5619 275° West 115 132 10,000  Descending Salt Lake Center
Thu 12:57:38 PM 44.1914 -118.6064 276° West 116 133 10,100 164 Climbing Salt Lake Center
Thu 12:58:26 PM 44.1936 -118.6417 275° West 116 133 10,300 109 Climbing Seattle Center
Thu 12:59:28 PM 44.1994 -118.6803 282° West 108 124 10,300  Level Seattle Center
Thu 01:00:29 PM 44.2100 -118.7208 290° West 108 124 10,300 49 Level Seattle Center
Thu 01:01:30 PM 44.2283 -118.7644 300° West 108 124 10,400 49 Climbing Seattle Center
Thu 01:02:31 PM 44.2469 -118.8000 306° West 109 125 10,400 -146 Level Seattle Center
Thu 01:03:33 PM 44.2672 -118.8372 307° West 118 136 10,100 -588 Descending Seattle Center
Thu 01:05:55 PM 44.3203 -118.9261 310° West 122 140 8,400 -735 Descending Salt Lake Center
Thu 01:06:57 PM 44.3431 -118.9608 313° West 122 140 7,600 -968 Descending Salt Lake Center
Thu 01:07:59 PM 44.3808 -118.9608 360° North 127 146 6,400 -1,161 Descending Salt Lake Center

Login

Don't have an account? Register now (free) for customized features, flight alerts, and more!